KSSI/SSI METAR and TAF weather

Enter ICAO airport designator
Station Type Date Time Source
KSSI METAR 2019/04/24 15:53 UTC NOAA

KSSI 241553Z AUTO 24007KT 10SM CLR 29/13 A3004 RMK AO2 SLP174 T02890128


Station Type Date Time Source
KSSI Decoded METAR 2019/04/24 15:53 UTC NOAA

BRUNSWICK MC KINNON AIRPORT , GA, United States (KSSI) 31-09N 081-23W 6M
Apr 24, 2019 - 11:53 AM EDT / 2019.04.24 1553 UTC
Wind: from the WSW (240 degrees) at 8 MPH (7 KT):0
Visibility: 10 mile(s):0
Sky conditions: clear
Temperature: 84.0 F (28.9 C)
Dew Point: 55.0 F (12.8 C)
Relative Humidity: 37%
Pressure (altimeter): 30.04 in. Hg (1017 hPa)
ob: KSSI 241553Z AUTO 24007KT 10SM CLR 29/13 A3004 RMK AO2 SLP174 T02890128
cycle: 16

Station Type Date Time Source
KSSI TAF 2019/04/24 12:22 UTC NOAA

TAF KSSI 241120Z 2412/2512 24007KT P6SM BKN250
FM241800 18011KT P6SM BKN250
FM250300 21005KT P6SM BKN250

Example: see airport list